sensor_id;sensor_type;location;lat;lon;timestamp;pressure;altitude;pressure_sealevel;temperature;humidity
6833;BME280;3454;42.654;23.378;2022-11-15T00:00:49;95026.56;;;6.54;100.00
6833;BME280;3454;42.654;23.378;2022-11-15T00:03:16;95028.38;;;6.52;100.00
6833;BME280;3454;42.654;23.378;2022-11-15T00:05:42;95016.38;;;6.29;100.00
6833;BME280;3454;42.654;23.378;2022-11-15T00:08:08;95034.25;;;6.26;100.00
6833;BME280;3454;42.654;23.378;2022-11-15T00:10:34;95022.47;;;5.98;100.00
6833;BME280;3454;42.654;23.378;2022-11-15T00:12:59;95032.56;;;5.98;100.00
6833;BME280;3454;42.654;23.378;2022-11-15T00:15:25;95028.97;;;6.02;100.00
6833;BME280;3454;42.654;23.378;2022-11-15T00:17:50;95033.09;;;6.17;100.00
6833;BME280;3454;42.654;23.378;2022-11-15T00:20:18;95023.53;;;6.08;100.00
6833;BME280;3454;42.654;23.378;2022-11-15T00:22:43;95035.78;;;6.14;100.00
6833;BME280;3454;42.654;23.378;2022-11-15T00:25:09;95049.13;;;6.16;100.00
6833;BME280;3454;42.654;23.378;2022-11-15T00:27:34;95044.16;;;6.15;100.00
6833;BME280;3454;42.654;23.378;2022-11-15T00:30:00;95048.75;;;6.22;100.00
6833;BME280;3454;42.654;23.378;2022-11-15T00:32:25;95046.94;;;6.24;100.00
6833;BME280;3454;42.654;23.378;2022-11-15T00:34:51;95047.56;;;6.28;100.00
6833;BME280;3454;42.654;23.378;2022-11-15T00:37:16;95045.78;;;6.30;100.00
6833;BME280;3454;42.654;23.378;2022-11-15T00:39:41;95059.88;;;6.46;100.00
6833;BME280;3454;42.654;23.378;2022-11-15T00:42:14;95059.16;;;6.44;100.00
6833;BME280;3454;42.654;23.378;2022-11-15T00:44:39;95061.31;;;6.50;100.00
6833;BME280;3454;42.654;23.378;2022-11-15T00:47:05;95057.97;;;6.50;100.00
6833;BME280;3454;42.654;23.378;2022-11-15T00:49:30;95067.69;;;6.56;100.00
6833;BME280;3454;42.654;23.378;2022-11-15T00:51:55;95062.63;;;6.56;100.00
6833;BME280;3454;42.654;23.378;2022-11-15T00:54:21;95031.13;;;6.35;100.00
6833;BME280;3454;42.654;23.378;2022-11-15T00:56:46;95040.94;;;6.39;100.00
6833;BME280;3454;42.654;23.378;2022-11-15T00:59:12;95055.53;;;6.48;100.00
6833;BME280;3454;42.654;23.378;2022-11-15T01:01:37;95043.66;;;6.36;100.00
6833;BME280;3454;42.654;23.378;2022-11-15T01:04:02;95031.41;;;6.30;100.00
6833;BME280;3454;42.654;23.378;2022-11-15T01:06:28;95019.00;;;6.27;100.00
6833;BME280;3454;42.654;23.378;2022-11-15T01:08:53;95022.13;;;6.31;100.00
6833;BME280;3454;42.654;23.378;2022-11-15T01:11:19;95008.78;;;6.29;100.00
6833;BME280;3454;42.654;23.378;2022-11-15T01:13:44;95013.34;;;6.36;100.00
6833;BME280;3454;42.654;23.378;2022-11-15T01:16:12;95024.09;;;6.40;100.00
6833;BME280;3454;42.654;23.378;2022-11-15T01:18:39;95039.75;;;6.45;100.00
6833;BME280;3454;42.654;23.378;2022-11-15T01:21:13;95042.38;;;6.43;100.00
6833;BME280;3454;42.654;23.378;2022-11-15T01:23:39;95046.53;;;6.44;100.00
6833;BME280;3454;42.654;23.378;2022-11-15T01:26:06;95039.84;;;6.43;100.00
6833;BME280;3454;42.654;23.378;2022-11-15T01:28:33;95024.00;;;6.41;100.00
6833;BME280;3454;42.654;23.378;2022-11-15T01:31:03;95031.19;;;6.47;100.00
6833;BME280;3454;42.654;23.378;2022-11-15T01:33:29;95032.00;;;6.48;100.00
6833;BME280;3454;42.654;23.378;2022-11-15T01:35:55;95028.56;;;6.49;100.00
6833;BME280;3454;42.654;23.378;2022-11-15T01:38:21;95038.22;;;6.42;100.00
6833;BME280;3454;42.654;23.378;2022-11-15T01:40:48;95019.31;;;6.35;100.00
6833;BME280;3454;42.654;23.378;2022-11-15T01:43:22;95025.47;;;6.31;100.00
6833;BME280;3454;42.654;23.378;2022-11-15T01:48:58;95077.97;;;6.53;100.00
6833;BME280;3454;42.654;23.378;2022-11-15T01:51:26;95055.56;;;6.34;100.00
6833;BME280;3454;42.654;23.378;2022-11-15T01:53:56;95023.31;;;6.25;100.00
6833;BME280;3454;42.654;23.378;2022-11-15T01:56:25;94979.84;;;6.08;100.00
6833;BME280;3454;42.654;23.378;2022-11-15T01:58:55;94966.59;;;6.04;100.00
6833;BME280;3454;42.654;23.378;2022-11-15T02:01:24;94974.88;;;6.06;100.00
6833;BME280;3454;42.654;23.378;2022-11-15T02:04:01;94985.69;;;6.08;100.00
6833;BME280;3454;42.654;23.378;2022-11-15T02:06:29;95007.91;;;6.30;100.00
6833;BME280;3454;42.654;23.378;2022-11-15T02:08:55;95042.03;;;6.35;100.00
6833;BME280;3454;42.654;23.378;2022-11-15T02:11:21;95047.28;;;6.32;100.00
6833;BME280;3454;42.654;23.378;2022-11-15T02:13:47;95003.84;;;6.01;100.00
6833;BME280;3454;42.654;23.378;2022-11-15T02:16:32;95012.13;;;6.03;100.00
6833;BME280;3454;42.654;23.378;2022-11-15T02:19:23;95006.56;;;5.98;100.00
6833;BME280;3454;42.654;23.378;2022-11-15T02:25:31;94987.25;;;5.97;100.00
6833;BME280;3454;42.654;23.378;2022-11-15T02:38:59;95014.84;;;6.00;100.00
6833;BME280;3454;42.654;23.378;2022-11-15T02:41:54;95001.78;;;5.93;100.00
6833;BME280;3454;42.654;23.378;2022-11-15T02:44:32;95002.78;;;5.90;100.00
6833;BME280;3454;42.654;23.378;2022-11-15T02:47:05;95004.69;;;5.87;100.00
6833;BME280;3454;42.654;23.378;2022-11-15T02:49:41;95011.53;;;5.85;100.00
6833;BME280;3454;42.654;23.378;2022-11-15T02:52:07;95017.28;;;5.87;100.00
6833;BME280;3454;42.654;23.378;2022-11-15T02:54:33;95018.19;;;5.86;100.00
6833;BME280;3454;42.654;23.378;2022-11-15T02:57:02;95013.47;;;5.94;100.00
6833;BME280;3454;42.654;23.378;2022-11-15T03:04:56;95058.81;;;6.10;100.00
6833;BME280;3454;42.654;23.378;2022-11-15T03:15:15;94981.19;;;5.44;100.00
6833;BME280;3454;42.654;23.378;2022-11-15T03:17:53;94980.84;;;5.50;100.00
6833;BME280;3454;42.654;23.378;2022-11-15T03:20:21;94988.56;;;5.61;100.00
6833;BME280;3454;42.654;23.378;2022-11-15T03:22:47;94996.88;;;5.63;100.00
6833;BME280;3454;42.654;23.378;2022-11-15T03:25:19;94998.19;;;5.69;100.00
6833;BME280;3454;42.654;23.378;2022-11-15T03:27:49;94986.94;;;5.60;100.00
6833;BME280;3454;42.654;23.378;2022-11-15T03:30:16;94983.53;;;5.61;100.00
6833;BME280;3454;42.654;23.378;2022-11-15T03:32:46;95040.88;;;6.00;100.00
6833;BME280;3454;42.654;23.378;2022-11-15T03:35:17;95021.25;;;5.77;100.00
6833;BME280;3454;42.654;23.378;2022-11-15T03:40:24;95055.59;;;5.93;100.00
6833;BME280;3454;42.654;23.378;2022-11-15T03:43:02;95050.25;;;5.84;100.00
6833;BME280;3454;42.654;23.378;2022-11-15T03:45:38;95024.03;;;5.58;100.00
6833;BME280;3454;42.654;23.378;2022-11-15T03:48:13;95039.91;;;5.60;100.00
6833;BME280;3454;42.654;23.378;2022-11-15T03:50:40;95023.59;;;5.52;100.00
6833;BME280;3454;42.654;23.378;2022-11-15T03:53:06;94982.03;;;5.31;100.00
6833;BME280;3454;42.654;23.378;2022-11-15T03:55:32;94992.91;;;5.31;100.00
6833;BME280;3454;42.654;23.378;2022-11-15T03:57:59;94972.94;;;5.28;100.00
6833;BME280;3454;42.654;23.378;2022-11-15T04:00:26;94950.00;;;5.04;100.00
6833;BME280;3454;42.654;23.378;2022-11-15T04:02:52;94937.19;;;4.93;100.00
6833;BME280;3454;42.654;23.378;2022-11-15T04:05:17;94924.88;;;4.89;100.00
6833;BME280;3454;42.654;23.378;2022-11-15T04:07:43;94972.09;;;5.13;100.00
6833;BME280;3454;42.654;23.378;2022-11-15T04:10:10;94984.34;;;5.05;100.00
6833;BME280;3454;42.654;23.378;2022-11-15T04:12:41;95002.59;;;4.95;100.00
6833;BME280;3454;42.654;23.378;2022-11-15T04:15:10;94985.81;;;4.66;100.00
6833;BME280;3454;42.654;23.378;2022-11-15T04:17:48;94954.47;;;4.42;100.00
6833;BME280;3454;42.654;23.378;2022-11-15T04:26:00;94917.91;;;4.20;100.00
6833;BME280;3454;42.654;23.378;2022-11-15T04:28:26;94913.16;;;4.16;100.00
6833;BME280;3454;42.654;23.378;2022-11-15T04:30:52;94914.72;;;4.03;100.00
6833;BME280;3454;42.654;23.378;2022-11-15T04:33:20;94925.94;;;3.97;100.00
6833;BME280;3454;42.654;23.378;2022-11-15T04:35:46;94929.44;;;3.95;100.00
6833;BME280;3454;42.654;23.378;2022-11-15T04:38:31;94931.59;;;4.01;100.00
6833;BME280;3454;42.654;23.378;2022-11-15T04:40:56;94939.97;;;3.86;100.00
6833;BME280;3454;42.654;23.378;2022-11-15T04:43:22;94940.06;;;4.00;100.00
6833;BME280;3454;42.654;23.378;2022-11-15T04:45:48;94934.34;;;4.12;100.00
6833;BME280;3454;42.654;23.378;2022-11-15T04:48:13;94933.00;;;4.36;100.00
6833;BME280;3454;42.654;23.378;2022-11-15T04:50:38;94938.31;;;4.46;100.00
6833;BME280;3454;42.654;23.378;2022-11-15T04:53:04;94937.66;;;4.28;100.00
6833;BME280;3454;42.654;23.378;2022-11-15T04:55:29;94941.41;;;4.35;100.00
6833;BME280;3454;42.654;23.378;2022-11-15T04:57:59;94943.63;;;4.55;100.00
6833;BME280;3454;42.654;23.378;2022-11-15T05:00:25;94946.16;;;4.55;100.00
6833;BME280;3454;42.654;23.378;2022-11-15T05:02:51;94945.03;;;4.45;100.00
6833;BME280;3454;42.654;23.378;2022-11-15T05:05:34;94950.44;;;4.53;100.00
6833;BME280;3454;42.654;23.378;2022-11-15T05:08:00;94950.44;;;4.53;100.00
6833;BME280;3454;42.654;23.378;2022-11-15T05:10:25;94943.88;;;4.51;100.00
6833;BME280;3454;42.654;23.378;2022-11-15T05:12:51;94939.97;;;4.75;100.00
6833;BME280;3454;42.654;23.378;2022-11-15T05:15:16;94949.69;;;4.81;100.00
6833;BME280;3454;42.654;23.378;2022-11-15T05:17:41;94951.22;;;4.83;100.00
6833;BME280;3454;42.654;23.378;2022-11-15T05:20:07;94951.66;;;4.76;100.00
6833;BME280;3454;42.654;23.378;2022-11-15T05:22:33;94947.34;;;4.78;100.00
6833;BME280;3454;42.654;23.378;2022-11-15T05:24:58;94946.91;;;4.85;100.00
6833;BME280;3454;42.654;23.378;2022-11-15T05:27:24;94946.19;;;4.97;100.00
6833;BME280;3454;42.654;23.378;2022-11-15T05:29:49;94954.09;;;5.05;100.00
6833;BME280;3454;42.654;23.378;2022-11-15T05:32:16;94954.31;;;5.17;100.00
6833;BME280;3454;42.654;23.378;2022-11-15T05:34:42;94946.28;;;5.38;100.00
6833;BME280;3454;42.654;23.378;2022-11-15T05:37:08;94952.59;;;5.72;100.00
6833;BME280;3454;42.654;23.378;2022-11-15T05:39:33;94954.00;;;5.63;100.00
6833;BME280;3454;42.654;23.378;2022-11-15T05:42:07;94946.63;;;5.46;100.00
6833;BME280;3454;42.654;23.378;2022-11-15T05:44:36;94934.50;;;5.10;100.00
6833;BME280;3454;42.654;23.378;2022-11-15T05:47:03;94952.50;;;5.04;100.00
6833;BME280;3454;42.654;23.378;2022-11-15T05:49:31;94955.03;;;5.19;100.00
6833;BME280;3454;42.654;23.378;2022-11-15T05:51:59;94961.56;;;5.07;100.00
6833;BME280;3454;42.654;23.378;2022-11-15T05:54:25;94949.31;;;4.87;100.00
6833;BME280;3454;42.654;23.378;2022-11-15T05:56:51;94957.06;;;4.84;100.00
6833;BME280;3454;42.654;23.378;2022-11-15T05:59:17;94954.00;;;4.93;100.00
6833;BME280;3454;42.654;23.378;2022-11-15T06:01:43;94957.06;;;4.84;100.00
6833;BME280;3454;42.654;23.378;2022-11-15T06:04:08;94959.75;;;4.81;100.00
6833;BME280;3454;42.654;23.378;2022-11-15T06:06:34;94954.63;;;4.68;100.00
6833;BME280;3454;42.654;23.378;2022-11-15T06:08:59;94956.06;;;4.58;100.00
6833;BME280;3454;42.654;23.378;2022-11-15T06:11:25;94960.56;;;4.67;100.00
6833;BME280;3454;42.654;23.378;2022-11-15T06:13:50;94972.56;;;5.06;100.00
6833;BME280;3454;42.654;23.378;2022-11-15T06:16:16;94969.59;;;4.99;100.00
6833;BME280;3454;42.654;23.378;2022-11-15T06:18:41;94959.16;;;5.05;100.00
6833;BME280;3454;42.654;23.378;2022-11-15T06:21:07;94961.69;;;5.74;100.00
6833;BME280;3454;42.654;23.378;2022-11-15T06:23:34;94965.66;;;6.58;100.00
6833;BME280;3454;42.654;23.378;2022-11-15T06:26:01;94956.13;;;6.49;100.00
6833;BME280;3454;42.654;23.378;2022-11-15T06:28:31;94953.53;;;6.63;100.00
6833;BME280;3454;42.654;23.378;2022-11-15T06:31:05;94964.88;;;6.31;100.00
6833;BME280;3454;42.654;23.378;2022-11-15T06:33:31;94972.47;;;6.05;100.00
6833;BME280;3454;42.654;23.378;2022-11-15T06:36:04;95015.31;;;6.19;100.00
6833;BME280;3454;42.654;23.378;2022-11-15T06:38:30;94979.06;;;5.93;100.00
6833;BME280;3454;42.654;23.378;2022-11-15T06:41:01;94967.28;;;5.79;100.00
6833;BME280;3454;42.654;23.378;2022-11-15T06:43:27;94977.91;;;5.70;100.00
6833;BME280;3454;42.654;23.378;2022-11-15T06:45:52;94971.91;;;5.59;100.00
6833;BME280;3454;42.654;23.378;2022-11-15T06:48:17;94955.03;;;6.53;100.00
6833;BME280;3454;42.654;23.378;2022-11-15T06:50:43;95002.91;;;6.55;100.00
6833;BME280;3454;42.654;23.378;2022-11-15T06:53:14;94995.44;;;6.27;100.00
6833;BME280;3454;42.654;23.378;2022-11-15T06:55:40;94997.31;;;6.11;100.00
6833;BME280;3454;42.654;23.378;2022-11-15T06:58:05;94967.91;;;5.83;100.00
6833;BME280;3454;42.654;23.378;2022-11-15T07:00:31;94950.84;;;7.17;100.00
6833;BME280;3454;42.654;23.378;2022-11-15T07:02:59;95039.09;;;7.70;100.00
6833;BME280;3454;42.654;23.378;2022-11-15T07:05:26;95029.00;;;7.20;100.00
6833;BME280;3454;42.654;23.378;2022-11-15T07:07:55;94920.09;;;7.10;100.00
6833;BME280;3454;42.654;23.378;2022-11-15T07:10:22;94947.34;;;8.85;100.00
6833;BME280;3454;42.654;23.378;2022-11-15T07:12:53;94999.53;;;10.22;100.00
6833;BME280;3454;42.654;23.378;2022-11-15T07:15:20;95109.88;;;10.06;100.00
6833;BME280;3454;42.654;23.378;2022-11-15T07:17:45;95169.84;;;9.63;100.00
6833;BME280;3454;42.654;23.378;2022-11-15T07:20:12;95123.53;;;9.03;100.00
6833;BME280;3454;42.654;23.378;2022-11-15T07:22:39;95040.09;;;8.16;100.00
6833;BME280;3454;42.654;23.378;2022-11-15T07:25:04;94964.44;;;7.52;100.00
6833;BME280;3454;42.654;23.378;2022-11-15T07:27:30;94967.38;;;7.33;100.00
6833;BME280;3454;42.654;23.378;2022-11-15T07:29:55;94951.66;;;7.05;100.00
6833;BME280;3454;42.654;23.378;2022-11-15T07:32:21;94927.69;;;6.85;100.00
6833;BME280;3454;42.654;23.378;2022-11-15T07:34:46;94923.53;;;6.46;100.00
6833;BME280;3454;42.654;23.378;2022-11-15T07:37:12;94953.97;;;6.70;100.00
6833;BME280;3454;42.654;23.378;2022-11-15T07:39:38;94949.81;;;6.56;100.00
6833;BME280;3454;42.654;23.378;2022-11-15T07:42:03;94920.22;;;6.19;100.00
6833;BME280;3454;42.654;23.378;2022-11-15T07:44:47;94927.94;;;5.77;100.00
6833;BME280;3454;42.654;23.378;2022-11-15T07:47:13;94932.25;;;5.34;100.00
6833;BME280;3454;42.654;23.378;2022-11-15T07:49:38;94942.19;;;5.50;100.00
6833;BME280;3454;42.654;23.378;2022-11-15T07:52:04;94938.59;;;5.54;100.00
6833;BME280;3454;42.654;23.378;2022-11-15T07:54:29;94946.22;;;5.66;100.00
6833;BME280;3454;42.654;23.378;2022-11-15T07:56:55;94941.03;;;5.82;100.00
6833;BME280;3454;42.654;23.378;2022-11-15T07:59:20;94944.13;;;5.87;100.00
6833;BME280;3454;42.654;23.378;2022-11-15T08:01:46;94949.53;;;5.95;100.00
6833;BME280;3454;42.654;23.378;2022-11-15T08:04:11;94963.22;;;6.18;100.00
6833;BME280;3454;42.654;23.378;2022-11-15T08:06:37;94977.06;;;6.25;100.00
6833;BME280;3454;42.654;23.378;2022-11-15T08:09:02;94949.38;;;6.11;100.00
6833;BME280;3454;42.654;23.378;2022-11-15T08:11:28;94950.03;;;6.00;100.00
6833;BME280;3454;42.654;23.378;2022-11-15T08:13:53;94930.06;;;5.97;100.00
6833;BME280;3454;42.654;23.378;2022-11-15T08:16:19;94946.56;;;5.88;100.00
6833;BME280;3454;42.654;23.378;2022-11-15T08:18:44;94935.22;;;5.81;100.00
6833;BME280;3454;42.654;23.378;2022-11-15T08:21:13;94929.00;;;5.87;100.00
6833;BME280;3454;42.654;23.378;2022-11-15T08:23:39;94938.75;;;6.06;100.00
6833;BME280;3454;42.654;23.378;2022-11-15T08:26:05;94955.03;;;6.14;100.00
6833;BME280;3454;42.654;23.378;2022-11-15T08:28:32;94927.44;;;5.99;100.00
6833;BME280;3454;42.654;23.378;2022-11-15T08:30:57;94914.41;;;5.78;100.00
6833;BME280;3454;42.654;23.378;2022-11-15T08:33:23;94910.41;;;5.61;100.00
6833;BME280;3454;42.654;23.378;2022-11-15T08:35:49;94934.66;;;5.90;100.00
6833;BME280;3454;42.654;23.378;2022-11-15T08:38:14;94928.63;;;5.79;100.00
6833;BME280;3454;42.654;23.378;2022-11-15T08:40:40;94929.47;;;6.06;100.00
6833;BME280;3454;42.654;23.378;2022-11-15T08:43:05;94938.13;;;6.02;100.00
6833;BME280;3454;42.654;23.378;2022-11-15T08:45:31;94934.66;;;6.17;100.00
6833;BME280;3454;42.654;23.378;2022-11-15T08:48:00;94940.13;;;6.24;100.00
6833;BME280;3454;42.654;23.378;2022-11-15T08:50:26;94924.03;;;6.12;100.00
6833;BME280;3454;42.654;23.378;2022-11-15T08:52:51;94917.81;;;6.30;100.00
6833;BME280;3454;42.654;23.378;2022-11-15T08:55:17;94931.00;;;6.60;100.00
6833;BME280;3454;42.654;23.378;2022-11-15T08:57:42;94959.81;;;6.96;100.00
6833;BME280;3454;42.654;23.378;2022-11-15T09:00:08;94978.66;;;7.17;100.00
6833;BME280;3454;42.654;23.378;2022-11-15T09:02:34;94966.59;;;7.20;100.00
6833;BME280;3454;42.654;23.378;2022-11-15T09:04:59;94958.09;;;7.21;100.00
6833;BME280;3454;42.654;23.378;2022-11-15T09:07:25;94976.59;;;7.34;100.00
6833;BME280;3454;42.654;23.378;2022-11-15T09:09:50;94970.63;;;7.35;100.00
6833;BME280;3454;42.654;23.378;2022-11-15T09:12:16;94957.38;;;7.32;100.00
6833;BME280;3454;42.654;23.378;2022-11-15T09:14:41;94950.63;;;7.20;100.00
6833;BME280;3454;42.654;23.378;2022-11-15T09:17:08;94942.72;;;7.24;100.00
6833;BME280;3454;42.654;23.378;2022-11-15T09:19:34;94900.06;;;7.20;100.00
6833;BME280;3454;42.654;23.378;2022-11-15T09:22:00;94916.94;;;7.32;100.00
6833;BME280;3454;42.654;23.378;2022-11-15T09:24:25;94911.00;;;7.20;100.00
6833;BME280;3454;42.654;23.378;2022-11-15T09:26:51;94894.09;;;7.21;100.00
6833;BME280;3454;42.654;23.378;2022-11-15T09:29:18;94902.69;;;7.31;100.00
6833;BME280;3454;42.654;23.378;2022-11-15T09:31:43;94905.06;;;7.45;100.00
6833;BME280;3454;42.654;23.378;2022-11-15T09:34:09;94898.22;;;7.71;100.00
6833;BME280;3454;42.654;23.378;2022-11-15T09:36:34;94936.09;;;7.96;100.00
6833;BME280;3454;42.654;23.378;2022-11-15T09:39:00;94952.78;;;8.22;100.00
6833;BME280;3454;42.654;23.378;2022-11-15T09:41:48;94957.00;;;8.34;100.00
6833;BME280;3454;42.654;23.378;2022-11-15T09:49:28;95001.72;;;8.81;100.00
6833;BME280;3454;42.654;23.378;2022-11-15T09:51:55;94991.16;;;8.87;100.00
6833;BME280;3454;42.654;23.378;2022-11-15T09:56:52;95010.41;;;9.68;100.00
6833;BME280;3454;42.654;23.378;2022-11-15T10:04:59;95090.28;;;11.05;100.00
6833;BME280;3454;42.654;23.378;2022-11-15T10:07:31;95112.94;;;11.60;100.00
6833;BME280;3454;42.654;23.378;2022-11-15T10:10:25;95145.22;;;11.92;100.00
6833;BME280;3454;42.654;23.378;2022-11-15T10:12:52;95130.03;;;11.90;100.00
6833;BME280;3454;42.654;23.378;2022-11-15T10:15:19;95155.16;;;12.25;100.00
6833;BME280;3454;42.654;23.378;2022-11-15T10:20:59;95115.44;;;12.72;100.00
6833;BME280;3454;42.654;23.378;2022-11-15T10:23:26;95166.63;;;12.80;100.00
6833;BME280;3454;42.654;23.378;2022-11-15T10:25:58;95154.16;;;12.96;99.90
6833;BME280;3454;42.654;23.378;2022-11-15T10:28:28;95155.69;;;13.17;99.54
6833;BME280;3454;42.654;23.378;2022-11-15T10:30:59;95217.53;;;13.40;96.15
6833;BME280;3454;42.654;23.378;2022-11-15T10:36:21;95184.06;;;13.62;96.25
6833;BME280;3454;42.654;23.378;2022-11-15T10:43:41;95148.03;;;13.75;95.83
6833;BME280;3454;42.654;23.378;2022-11-15T10:46:21;95161.06;;;13.72;95.10
6833;BME280;3454;42.654;23.378;2022-11-15T10:48:47;95139.16;;;13.69;95.71
6833;BME280;3454;42.654;23.378;2022-11-15T10:51:22;95123.81;;;13.60;95.55
6833;BME280;3454;42.654;23.378;2022-11-15T10:53:51;95124.91;;;13.67;95.37
6833;BME280;3454;42.654;23.378;2022-11-15T10:56:20;95131.38;;;13.52;94.97
6833;BME280;3454;42.654;23.378;2022-11-15T10:58:56;95102.75;;;13.48;96.28
6833;BME280;3454;42.654;23.378;2022-11-15T11:04:07;95071.03;;;13.31;96.54
6833;BME280;3454;42.654;23.378;2022-11-15T11:06:57;95048.34;;;13.09;97.23
6833;BME280;3454;42.654;23.378;2022-11-15T11:11:59;95019.34;;;13.10;97.93
6833;BME280;3454;42.654;23.378;2022-11-15T11:14:29;95027.41;;;13.06;97.73
6833;BME280;3454;42.654;23.378;2022-11-15T11:25:35;94984.81;;;13.06;98.95
6833;BME280;3454;42.654;23.378;2022-11-15T11:30:54;95009.06;;;13.48;97.19
6833;BME280;3454;42.654;23.378;2022-11-15T11:38:56;95010.69;;;13.40;96.05
6833;BME280;3454;42.654;23.378;2022-11-15T11:44:07;95023.38;;;13.96;95.41
6833;BME280;3454;42.654;23.378;2022-11-15T11:46:51;95009.75;;;13.78;95.47
6833;BME280;3454;42.654;23.378;2022-11-15T11:49:19;95056.72;;;14.04;93.59
6833;BME280;3454;42.654;23.378;2022-11-15T11:51:59;95019.66;;;13.90;85.14
6833;BME280;3454;42.654;23.378;2022-11-15T11:57:00;95029.47;;;14.22;77.34
6833;BME280;3454;42.654;23.378;2022-11-15T11:59:44;95045.34;;;14.25;75.75
6833;BME280;3454;42.654;23.378;2022-11-15T12:02:39;95050.66;;;14.42;74.78
6833;BME280;3454;42.654;23.378;2022-11-15T12:05:38;95087.75;;;14.55;72.25
6833;BME280;3454;42.654;23.378;2022-11-15T12:08:20;95025.25;;;14.40;74.00
6833;BME280;3454;42.654;23.378;2022-11-15T12:10:54;95018.88;;;14.44;73.69
6833;BME280;3454;42.654;23.378;2022-11-15T12:13:25;95023.28;;;14.52;73.29
6833;BME280;3454;42.654;23.378;2022-11-15T12:16:16;95032.78;;;14.59;72.61
6833;BME280;3454;42.654;23.378;2022-11-15T12:18:48;95042.50;;;14.56;71.98
6833;BME280;3454;42.654;23.378;2022-11-15T12:24:26;95017.00;;;14.46;72.65
6833;BME280;3454;42.654;23.378;2022-11-15T12:26:59;94987.72;;;14.31;73.57
6833;BME280;3454;42.654;23.378;2022-11-15T12:29:51;94966.41;;;14.40;73.93
6833;BME280;3454;42.654;23.378;2022-11-15T12:32:29;94990.25;;;14.58;73.02
6833;BME280;3454;42.654;23.378;2022-11-15T12:34:56;94996.09;;;14.68;72.26
6833;BME280;3454;42.654;23.378;2022-11-15T12:42:56;95012.69;;;14.99;71.25
6833;BME280;3454;42.654;23.378;2022-11-15T12:47:53;94982.09;;;14.98;71.95
6833;BME280;3454;42.654;23.378;2022-11-15T13:11:56;94890.91;;;14.36;74.57
6833;BME280;3454;42.654;23.378;2022-11-15T13:22:44;94902.81;;;14.45;73.25
6833;BME280;3454;42.654;23.378;2022-11-15T13:25:17;94901.66;;;14.40;73.03
6833;BME280;3454;42.654;23.378;2022-11-15T13:27:47;94895.06;;;14.37;73.18
6833;BME280;3454;42.654;23.378;2022-11-15T13:30:20;94881.63;;;14.35;73.85
6833;BME280;3454;42.654;23.378;2022-11-15T13:32:46;94855.28;;;14.25;74.42
6833;BME280;3454;42.654;23.378;2022-11-15T13:35:23;94846.91;;;14.15;74.59
6833;BME280;3454;42.654;23.378;2022-11-15T13:37:50;94849.00;;;14.02;74.50
6833;BME280;3454;42.654;23.378;2022-11-15T13:40:18;94819.88;;;13.95;75.34
6833;BME280;3454;42.654;23.378;2022-11-15T13:42:45;94776.34;;;13.69;77.17
6833;BME280;3454;42.654;23.378;2022-11-15T13:45:14;94797.38;;;13.63;77.07
6833;BME280;3454;42.654;23.378;2022-11-15T13:47:40;94782.75;;;13.56;76.84
6833;BME280;3454;42.654;23.378;2022-11-15T13:50:09;94760.84;;;13.35;77.75
6833;BME280;3454;42.654;23.378;2022-11-15T13:52:36;94729.69;;;13.14;78.86
6833;BME280;3454;42.654;23.378;2022-11-15T13:55:11;94712.94;;;13.02;79.72
6833;BME280;3454;42.654;23.378;2022-11-15T14:02:55;94670.50;;;12.74;81.50
6833;BME280;3454;42.654;23.378;2022-11-15T14:05:23;94647.22;;;12.59;82.59
6833;BME280;3454;42.654;23.378;2022-11-15T14:07:58;94631.06;;;12.41;83.00
6833;BME280;3454;42.654;23.378;2022-11-15T14:10:28;94612.19;;;12.34;84.07
6833;BME280;3454;42.654;23.378;2022-11-15T14:12:55;94583.69;;;12.21;85.38
6833;BME280;3454;42.654;23.378;2022-11-15T14:15:36;94586.38;;;12.20;85.13
6833;BME280;3454;42.654;23.378;2022-11-15T14:18:03;94561.47;;;12.04;86.35
6833;BME280;3454;42.654;23.378;2022-11-15T14:20:32;94547.56;;;11.99;87.39
6833;BME280;3454;42.654;23.378;2022-11-15T14:23:04;94533.97;;;11.80;87.48
6833;BME280;3454;42.654;23.378;2022-11-15T14:25:36;94527.97;;;11.72;88.27
6833;BME280;3454;42.654;23.378;2022-11-15T14:30:38;94523.19;;;11.59;88.92
6833;BME280;3454;42.654;23.378;2022-11-15T14:35:55;94493.25;;;11.15;90.88
6833;BME280;3454;42.654;23.378;2022-11-15T14:38:23;94486.19;;;11.09;91.91
6833;BME280;3454;42.654;23.378;2022-11-15T14:40:48;94477.75;;;10.99;92.53
6833;BME280;3454;42.654;23.378;2022-11-15T14:43:14;94474.31;;;10.90;92.96
6833;BME280;3454;42.654;23.378;2022-11-15T14:45:40;94458.53;;;10.77;93.84
6833;BME280;3454;42.654;23.378;2022-11-15T14:48:05;94451.19;;;10.74;94.55
6833;BME280;3454;42.654;23.378;2022-11-15T14:50:32;94458.41;;;10.69;94.79
6833;BME280;3454;42.654;23.378;2022-11-15T14:52:58;94468.06;;;10.66;94.84
6833;BME280;3454;42.654;23.378;2022-11-15T14:55:35;94473.81;;;10.68;94.59
6833;BME280;3454;42.654;23.378;2022-11-15T14:58:05;94462.03;;;10.57;95.30
6833;BME280;3454;42.654;23.378;2022-11-15T15:00:34;94446.13;;;10.46;96.39
6833;BME280;3454;42.654;23.378;2022-11-15T15:03:06;94435.69;;;10.39;97.24
6833;BME280;3454;42.654;23.378;2022-11-15T15:05:35;94447.06;;;10.35;97.23
6833;BME280;3454;42.654;23.378;2022-11-15T15:08:01;94450.28;;;10.28;97.57
6833;BME280;3454;42.654;23.378;2022-11-15T15:10:31;94450.13;;;10.20;98.42
6833;BME280;3454;42.654;23.378;2022-11-15T15:12:58;94441.66;;;10.09;99.85
6833;BME280;3454;42.654;23.378;2022-11-15T15:15:26;94455.59;;;10.15;99.11
6833;BME280;3454;42.654;23.378;2022-11-15T15:17:52;94473.81;;;10.30;97.84
6833;BME280;3454;42.654;23.378;2022-11-15T15:20:17;94466.81;;;10.12;98.47
6833;BME280;3454;42.654;23.378;2022-11-15T15:22:44;94464.09;;;10.04;99.51
6833;BME280;3454;42.654;23.378;2022-11-15T15:27:46;94456.31;;;9.87;100.00
6833;BME280;3454;42.654;23.378;2022-11-15T15:30:12;94444.53;;;9.76;100.00
6833;BME280;3454;42.654;23.378;2022-11-15T15:32:38;94468.78;;;9.99;100.00
6833;BME280;3454;42.654;23.378;2022-11-15T15:35:03;94483.59;;;10.04;99.73
6833;BME280;3454;42.654;23.378;2022-11-15T15:37:30;94458.72;;;9.79;100.00
6833;BME280;3454;42.654;23.378;2022-11-15T15:39:58;94453.88;;;9.76;100.00
6833;BME280;3454;42.654;23.378;2022-11-15T15:42:24;94437.44;;;9.61;100.00